createdAt,value
2018-09-13T00:01:48.507Z,1.40
2018-09-13T00:04:16.900Z,2.23
2018-09-13T00:06:47.381Z,4.97
2018-09-13T00:09:15.711Z,2.10
2018-09-13T00:11:44.383Z,1.70
2018-09-13T00:14:12.716Z,3.50
2018-09-13T00:16:41.171Z,1.57
2018-09-13T00:19:09.568Z,1.73
2018-09-13T00:21:37.919Z,2.57
2018-09-13T00:24:06.270Z,1.33
2018-09-13T00:26:34.619Z,2.47
2018-09-13T00:29:02.972Z,1.57
2018-09-13T00:31:31.316Z,2.03
2018-09-13T00:33:59.663Z,1.40
2018-09-13T00:36:28.034Z,1.73
2018-09-13T00:38:56.629Z,2.00
2018-09-13T00:41:24.988Z,2.10
2018-09-13T00:43:53.408Z,1.53
2018-09-13T00:46:21.762Z,4.50
2018-09-13T00:48:50.120Z,1.47
2018-09-13T00:51:18.466Z,1.77
2018-09-13T00:53:46.830Z,1.70
2018-09-13T00:56:15.184Z,2.50
2018-09-13T00:58:43.534Z,1.90
2018-09-13T01:01:11.937Z,3.43
2018-09-13T01:03:40.261Z,2.00
2018-09-13T01:06:08.590Z,1.80
2018-09-13T01:08:37.182Z,2.00
2018-09-13T01:11:05.530Z,2.93
2018-09-13T01:13:33.958Z,3.57
2018-09-13T01:16:02.340Z,2.87
2018-09-13T01:18:30.750Z,1.87
2018-09-13T01:20:59.201Z,2.80
2018-09-13T01:23:27.564Z,1.80
2018-09-13T01:25:55.892Z,5.23
2018-09-13T01:28:24.263Z,2.00
2018-09-13T01:30:52.799Z,2.17
2018-09-13T01:33:21.201Z,2.43
2018-09-13T01:35:49.582Z,4.20
2018-09-13T01:38:18.043Z,2.43
2018-09-13T01:40:46.589Z,2.77
2018-09-13T01:43:14.943Z,4.37
2018-09-13T01:45:43.323Z,2.63
2018-09-13T01:48:11.804Z,2.70
2018-09-13T01:50:40.147Z,3.13
2018-09-13T01:53:08.563Z,4.60
2018-09-13T01:55:36.944Z,3.07
2018-09-13T01:58:05.644Z,2.50
2018-09-13T02:00:33.970Z,2.27
2018-09-13T02:03:02.339Z,2.40
2018-09-13T02:05:30.731Z,2.50
2018-09-13T02:07:59.168Z,2.60
2018-09-13T02:10:27.530Z,2.70
2018-09-13T02:12:55.877Z,3.30
2018-09-13T02:15:24.247Z,2.17
2018-09-13T02:17:52.618Z,3.90
2018-09-13T02:20:21.038Z,3.47
2018-09-13T02:22:49.398Z,3.73
2018-09-13T02:25:17.753Z,2.30
2018-09-13T02:27:46.139Z,2.87
2018-09-13T02:30:14.650Z,3.70
2018-09-13T02:32:43.002Z,2.93
2018-09-13T02:35:11.314Z,2.90
2018-09-13T02:37:39.736Z,3.23
2018-09-13T02:40:08.118Z,2.00
2018-09-13T02:42:36.493Z,3.77
2018-09-13T02:45:04.996Z,2.23
2018-09-13T02:47:33.300Z,2.00
2018-09-13T02:50:01.652Z,2.87
2018-09-13T02:52:36.523Z,2.40
2018-09-13T02:55:04.910Z,2.43
2018-09-13T02:57:33.236Z,2.20
2018-09-13T03:00:01.603Z,4.33
2018-09-13T03:02:29.950Z,2.30
2018-09-13T03:04:58.299Z,2.07
2018-09-13T03:07:26.672Z,2.23
2018-09-13T03:09:55.069Z,2.37
2018-09-13T03:12:23.752Z,2.47
2018-09-13T03:14:52.123Z,2.83
2018-09-13T03:17:20.480Z,1.70
2018-09-13T03:19:48.825Z,2.27
2018-09-13T03:22:17.202Z,1.93
2018-09-13T03:24:45.506Z,2.80
2018-09-13T03:27:14.110Z,1.67
2018-09-13T03:29:42.510Z,2.40
2018-09-13T03:32:10.854Z,2.43
2018-09-13T03:34:39.173Z,1.83
2018-09-13T03:37:07.482Z,3.47
2018-09-13T03:39:35.848Z,1.73
2018-09-13T03:42:04.211Z,2.00
2018-09-13T03:44:32.575Z,1.70
2018-09-13T03:47:00.919Z,2.27
2018-09-13T03:49:29.314Z,3.73
2018-09-13T03:51:57.691Z,2.30
2018-09-13T03:54:26.063Z,2.93
2018-09-13T03:56:54.613Z,3.23
2018-09-13T03:59:23.205Z,2.20
2018-09-13T04:01:51.605Z,2.87
2018-09-13T04:04:19.947Z,1.87
2018-09-13T04:06:48.279Z,2.73
2018-09-13T04:09:16.713Z,3.17
2018-09-13T04:11:45.024Z,1.40
2018-09-13T04:14:13.427Z,1.77
2018-09-13T04:16:42.110Z,1.90
2018-09-13T04:19:10.491Z,2.70
2018-09-13T04:21:38.828Z,2.03
2018-09-13T04:24:07.187Z,2.83
2018-09-13T04:26:35.531Z,2.97
2018-09-13T04:29:03.946Z,2.30
2018-09-13T04:31:32.317Z,2.33
2018-09-13T04:34:00.684Z,1.73
2018-09-13T04:36:29.044Z,3.63
2018-09-13T04:38:57.481Z,1.90
2018-09-13T04:41:25.830Z,2.33
2018-09-13T04:43:54.292Z,1.77
2018-09-13T04:46:22.651Z,1.60
2018-09-13T04:48:51.164Z,3.90
2018-09-13T04:51:19.518Z,2.60
2018-09-13T04:53:47.880Z,2.80
2018-09-13T04:56:16.264Z,2.37
2018-09-13T04:58:44.801Z,2.10
2018-09-13T05:01:13.107Z,2.73
2018-09-13T05:03:41.486Z,1.87
2018-09-13T05:06:09.792Z,2.77
2018-09-13T05:08:38.139Z,2.30
2018-09-13T05:11:06.494Z,2.07
2018-09-13T05:13:34.971Z,2.23
2018-09-13T05:16:03.263Z,2.20
2018-09-13T05:18:31.824Z,1.43
2018-09-13T05:21:00.177Z,2.87
2018-09-13T05:23:28.494Z,3.60
2018-09-13T05:25:56.848Z,1.93
2018-09-13T05:28:25.305Z,2.23
2018-09-13T05:30:53.655Z,2.70
2018-09-13T05:33:22.056Z,3.00
2018-09-13T05:35:50.397Z,2.67
2018-09-13T05:38:18.737Z,2.57
2018-09-13T05:40:47.094Z,2.13
2018-09-13T05:43:15.475Z,1.30
2018-09-13T05:45:43.851Z,4.93
2018-09-13T05:48:12.279Z,6.70
2018-09-13T05:50:40.584Z,2.67
2018-09-13T05:53:08.963Z,4.00
2018-09-13T05:55:37.367Z,3.87
2018-09-13T05:58:06.356Z,5.20
2018-09-13T06:00:34.735Z,2.93
2018-09-13T06:03:03.079Z,3.90
2018-09-13T06:05:31.399Z,8.03
2018-09-13T06:07:59.752Z,4.00
2018-09-13T06:10:28.127Z,4.63
2018-09-13T06:12:56.504Z,5.40
2018-09-13T06:15:24.893Z,6.50
2018-09-13T06:17:53.499Z,4.40
2018-09-13T06:20:22.099Z,4.40
2018-09-13T06:22:50.407Z,5.00
2018-09-13T06:25:18.767Z,3.60
2018-09-13T06:27:47.187Z,6.50
2018-09-13T06:30:15.559Z,5.37
2018-09-13T06:32:43.927Z,6.37
2018-09-13T06:35:12.304Z,5.33
2018-09-13T06:37:40.828Z,4.50
2018-09-13T06:40:09.184Z,4.37
2018-09-13T06:42:37.549Z,7.27
2018-09-13T06:45:06.466Z,5.53
2018-09-13T06:47:35.120Z,4.83
2018-09-13T06:50:03.603Z,6.70
2018-09-13T06:52:31.989Z,6.93
2018-09-13T06:55:00.305Z,5.27
2018-09-13T06:57:28.936Z,3.30
2018-09-13T06:59:57.253Z,3.97
2018-09-13T07:02:25.646Z,6.87
2018-09-13T07:04:54.137Z,4.30
2018-09-13T07:07:22.607Z,3.87
2018-09-13T07:09:50.949Z,6.80
2018-09-13T07:12:19.278Z,4.00
2018-09-13T07:14:47.914Z,4.33
2018-09-13T07:17:16.284Z,6.20
2018-09-13T07:19:44.633Z,5.07
2018-09-13T07:22:13.064Z,12.23
2018-09-13T07:24:41.530Z,4.27
2018-09-13T07:27:09.808Z,6.67
2018-09-13T07:29:38.154Z,2.50
2018-09-13T07:32:06.639Z,3.43
2018-09-13T07:34:35.119Z,6.73
2018-09-13T07:37:03.470Z,5.30
2018-09-13T07:39:31.873Z,4.20
2018-09-13T07:42:00.249Z,2.70
2018-09-13T07:44:28.620Z,5.67
2018-09-13T07:46:56.995Z,6.40
2018-09-13T07:49:25.425Z,2.47
2018-09-13T07:51:53.728Z,8.47
2018-09-13T07:54:22.059Z,2.93
2018-09-13T07:56:50.404Z,5.43
2018-09-13T07:59:18.786Z,5.87
2018-09-13T08:01:47.120Z,3.10
2018-09-13T08:04:15.484Z,3.83
2018-09-13T08:06:44.057Z,4.90
2018-09-13T08:09:13.446Z,7.10
2018-09-13T08:11:42.200Z,8.57
2018-09-13T08:14:10.499Z,3.00
2018-09-13T08:16:38.901Z,9.77
2018-09-13T08:19:07.260Z,3.43
2018-09-13T08:21:35.688Z,3.30
2018-09-13T08:24:04.027Z,3.33
2018-09-13T08:26:32.333Z,5.50
2018-09-13T08:29:01.023Z,3.07
2018-09-13T08:31:29.393Z,5.33
2018-09-13T08:33:57.779Z,2.43
2018-09-13T08:36:26.148Z,7.37
2018-09-13T08:38:54.489Z,6.93
2018-09-13T08:41:22.887Z,5.67
2018-09-13T08:43:51.262Z,8.20
2018-09-13T08:46:20.620Z,6.50
2018-09-13T08:48:50.206Z,4.73
2018-09-13T08:51:18.600Z,3.87
2018-09-13T08:53:46.957Z,6.77
2018-09-13T08:56:15.344Z,5.70
2018-09-13T08:58:43.727Z,4.60
2018-09-13T09:01:12.092Z,4.30
2018-09-13T09:03:40.484Z,6.07
2018-09-13T09:06:08.869Z,5.03
2018-09-13T09:08:37.699Z,6.17
2018-09-13T09:11:06.279Z,6.17
2018-09-13T09:13:34.728Z,5.43
2018-09-13T09:16:03.086Z,6.93
2018-09-13T09:18:31.477Z,7.07
2018-09-13T09:20:59.879Z,25.67
2018-09-13T09:23:28.226Z,9.60
2018-09-13T09:25:56.698Z,8.87
2018-09-13T09:28:25.139Z,6.27
2018-09-13T09:30:53.565Z,5.03
2018-09-13T09:33:21.929Z,7.03
2018-09-13T09:35:50.398Z,4.23
2018-09-13T09:38:18.770Z,4.27
2018-09-13T09:40:47.459Z,6.23
2018-09-13T09:43:15.628Z,10.97
2018-09-13T09:45:43.952Z,7.63
2018-09-13T09:48:12.435Z,13.80
2018-09-13T09:50:40.683Z,8.33
2018-09-13T09:53:09.088Z,8.23
2018-09-13T09:55:37.431Z,7.40
2018-09-13T09:58:06.227Z,11.00
2018-09-13T10:00:39.996Z,7.77
2018-09-13T10:03:08.479Z,7.23
2018-09-13T10:05:36.848Z,8.80
2018-09-13T10:08:05.259Z,5.60
2018-09-13T10:10:33.646Z,7.93
2018-09-13T10:13:02.037Z,6.83
2018-09-13T10:15:35.655Z,7.77
2018-09-13T10:18:09.371Z,17.33
2018-09-13T10:20:43.007Z,7.90
2018-09-13T10:23:16.734Z,7.00
2018-09-13T10:25:50.383Z,6.87
2018-09-13T10:28:24.087Z,7.43
2018-09-13T10:30:57.781Z,6.37
2018-09-13T10:33:31.513Z,9.40
2018-09-13T10:36:05.152Z,11.33
2018-09-13T10:38:38.867Z,7.03
2018-09-13T10:41:12.517Z,7.43
2018-09-13T10:43:46.152Z,7.23
2018-09-13T10:46:19.842Z,7.30
2018-09-13T10:48:54.043Z,10.57
2018-09-13T10:51:27.738Z,6.83
2018-09-13T10:53:59.184Z,7.73
2018-09-13T10:56:27.957Z,10.37
2018-09-13T10:58:56.364Z,9.77
2018-09-13T11:01:24.799Z,6.10
2018-09-13T11:03:53.532Z,15.90
2018-09-13T11:06:21.868Z,8.63
2018-09-13T11:08:50.236Z,9.93
2018-09-13T11:11:18.632Z,7.53
2018-09-13T11:13:51.372Z,9.37
2018-09-13T11:16:20.588Z,7.83
2018-09-13T11:18:48.949Z,9.60
2018-09-13T11:21:17.340Z,9.00
2018-09-13T11:23:45.710Z,12.23
2018-09-13T11:26:14.073Z,8.53
2018-09-13T11:28:42.448Z,8.30
2018-09-13T11:31:10.808Z,7.67
2018-09-13T11:33:39.470Z,7.30
2018-09-13T11:36:07.865Z,12.40
2018-09-13T11:38:36.254Z,11.43
2018-09-13T11:41:04.920Z,19.17
2018-09-13T11:43:33.076Z,16.97
2018-09-13T11:46:01.670Z,12.37
2018-09-13T11:48:30.044Z,13.20
2018-09-13T11:50:58.394Z,12.13
2018-09-13T11:53:26.796Z,11.80
2018-09-13T11:55:55.099Z,8.60
2018-09-13T11:58:23.462Z,14.37
2018-09-13T12:00:51.792Z,16.10
2018-09-13T12:03:20.150Z,17.63
2018-09-13T12:05:48.513Z,13.83
2018-09-13T12:08:16.888Z,14.83
2018-09-13T12:10:45.292Z,14.80
2018-09-13T12:13:13.646Z,13.67
2018-09-13T12:15:42.033Z,11.03
2018-09-13T12:18:10.731Z,14.63
2018-09-13T12:20:39.079Z,9.57
2018-09-13T12:23:07.491Z,10.67
2018-09-13T12:25:35.885Z,13.37
2018-09-13T12:28:04.273Z,13.90
2018-09-13T12:30:32.635Z,16.00
2018-09-13T12:33:01.068Z,12.63
2018-09-13T12:35:29.475Z,12.93
2018-09-13T12:37:58.081Z,24.73
2018-09-13T12:40:26.427Z,9.30
2018-09-13T12:42:54.806Z,12.77
2018-09-13T12:45:23.228Z,8.97
2018-09-13T12:47:51.976Z,9.50
2018-09-13T12:50:20.389Z,6.37
2018-09-13T12:52:48.863Z,8.10
2018-09-13T12:55:17.236Z,9.27
2018-09-13T12:57:45.863Z,12.67
2018-09-13T13:00:14.390Z,5.90
2018-09-13T13:02:44.512Z,8.70
2018-09-13T13:05:12.884Z,12.57
2018-09-13T13:07:42.100Z,17.93
2018-09-13T13:10:10.993Z,10.53
2018-09-13T13:12:39.342Z,6.23
2018-09-13T13:15:07.784Z,8.57
2018-09-13T13:17:36.148Z,7.27
2018-09-13T13:20:04.602Z,9.07
2018-09-13T13:22:32.944Z,8.63
2018-09-13T13:25:01.288Z,9.97
2018-09-13T13:27:29.692Z,7.70
2018-09-13T13:29:58.012Z,7.40
2018-09-13T13:32:26.472Z,10.03
2018-09-13T13:34:54.814Z,7.87
2018-09-13T13:37:23.214Z,8.90
2018-09-13T13:39:51.578Z,14.37
2018-09-13T13:42:19.896Z,11.67
2018-09-13T13:44:48.413Z,11.97
2018-09-13T13:47:16.792Z,14.23
2018-09-13T13:49:45.156Z,9.47
2018-09-13T13:52:13.538Z,15.03
2018-09-13T13:54:41.910Z,8.57
2018-09-13T13:57:10.502Z,8.80
2018-09-13T13:59:38.908Z,10.67
2018-09-13T14:02:07.322Z,12.10
2018-09-13T14:04:35.666Z,13.43
2018-09-13T14:07:04.113Z,11.93
2018-09-13T14:09:32.519Z,12.03
2018-09-13T14:12:00.915Z,10.00
2018-09-13T14:14:29.327Z,11.83
2018-09-13T14:16:57.705Z,13.17
2018-09-13T14:19:26.100Z,12.63
2018-09-13T14:21:54.428Z,10.83
2018-09-13T14:24:22.815Z,10.53
2018-09-13T14:26:51.173Z,12.90
2018-09-13T14:29:19.534Z,14.60
2018-09-13T14:31:47.943Z,12.20
2018-09-13T14:34:16.339Z,11.60
2018-09-13T14:36:44.652Z,20.43
2018-09-13T14:39:13.051Z,11.53
2018-09-13T14:41:41.444Z,12.97
2018-09-13T14:44:09.812Z,10.20
2018-09-13T14:46:38.214Z,16.00
2018-09-13T14:49:06.956Z,9.63
2018-09-13T14:51:35.389Z,9.13
2018-09-13T14:54:03.818Z,11.17
2018-09-13T14:56:32.200Z,13.03
2018-09-13T14:59:00.780Z,15.93
2018-09-13T15:01:29.197Z,11.57
2018-09-13T15:03:57.580Z,12.63
2018-09-13T15:06:25.976Z,9.43
2018-09-13T15:08:54.340Z,16.10
2018-09-13T15:11:22.724Z,14.27
2018-09-13T15:13:51.061Z,12.20
2018-09-13T15:16:19.448Z,14.43
2018-09-13T15:18:47.890Z,9.00
2018-09-13T15:21:16.272Z,11.17
2018-09-13T15:23:44.751Z,9.57
2018-09-13T15:26:13.173Z,10.77
2018-09-13T15:28:41.556Z,10.17
2018-09-13T15:31:10.096Z,13.00
2018-09-13T15:33:38.450Z,8.17
2018-09-13T15:36:06.796Z,9.50
2018-09-13T15:38:35.301Z,12.70
2018-09-13T15:41:04.150Z,13.73
2018-09-13T15:43:32.529Z,10.27
2018-09-13T15:46:00.872Z,14.60
2018-09-13T15:48:29.241Z,10.70
2018-09-13T15:50:57.622Z,11.77
2018-09-13T15:53:25.996Z,8.93
2018-09-13T15:55:54.369Z,11.47
2018-09-13T15:58:22.781Z,10.43
2018-09-13T16:00:51.381Z,11.43
2018-09-13T16:03:19.780Z,11.37
2018-09-13T16:05:48.281Z,9.93
2018-09-13T16:08:16.665Z,15.60
2018-09-13T16:10:45.063Z,12.13
2018-09-13T16:13:13.435Z,14.90
2018-09-13T16:15:41.812Z,10.53
2018-09-13T16:18:10.200Z,11.57
2018-09-13T16:20:38.596Z,10.50
2018-09-13T16:23:06.994Z,10.10
2018-09-13T16:25:35.399Z,11.60
2018-09-13T16:28:03.868Z,13.17
2018-09-13T16:30:32.299Z,13.43
2018-09-13T16:33:00.661Z,11.00
2018-09-13T16:35:29.076Z,9.87
2018-09-13T16:38:02.743Z,16.33
2018-09-13T16:40:36.486Z,11.93
2018-09-13T16:43:10.275Z,14.30
2018-09-13T16:45:38.949Z,9.83
2018-09-13T16:48:07.399Z,10.73
2018-09-13T16:50:35.794Z,11.27
2018-09-13T16:53:04.281Z,9.70
2018-09-13T16:55:32.760Z,10.60
2018-09-13T16:58:01.172Z,11.93
2018-09-13T17:00:29.700Z,9.40
2018-09-13T17:02:58.089Z,11.10
2018-09-13T17:05:26.445Z,9.87
2018-09-13T17:07:55.025Z,13.10
2018-09-13T17:10:23.371Z,10.70
2018-09-13T17:12:51.753Z,9.57
2018-09-13T17:15:20.356Z,10.87
2018-09-13T17:17:48.761Z,11.53
2018-09-13T17:20:17.217Z,11.33
2018-09-13T17:22:45.638Z,10.37
2018-09-13T17:25:14.071Z,11.27
2018-09-13T17:27:42.456Z,12.00
2018-09-13T17:30:10.811Z,10.97
2018-09-13T17:32:39.159Z,11.90
2018-09-13T17:35:07.583Z,10.73
2018-09-13T17:37:36.105Z,10.83
2018-09-13T17:40:04.567Z,10.83
2018-09-13T17:42:32.966Z,10.93
2018-09-13T17:45:01.394Z,10.67
2018-09-13T17:47:29.897Z,10.80
2018-09-13T17:52:19.036Z,13.27
2018-09-13T17:54:47.418Z,11.60
2018-09-13T17:57:15.832Z,12.13
2018-09-13T17:59:44.160Z,11.93
2018-09-13T18:02:12.612Z,11.77
2018-09-13T18:04:41.051Z,11.37
2018-09-13T18:07:11.088Z,11.50
2018-09-13T18:09:39.529Z,14.33
2018-09-13T18:12:07.976Z,14.33
2018-09-13T18:14:36.351Z,11.13
2018-09-13T18:17:05.188Z,12.20
2018-09-13T18:19:33.833Z,11.13
2018-09-13T18:22:02.476Z,11.57
2018-09-13T18:24:30.916Z,11.07
2018-09-13T18:26:59.767Z,13.13
2018-09-13T18:29:28.097Z,11.30
2018-09-13T18:31:56.577Z,11.90
2018-09-13T18:34:24.984Z,10.87
2018-09-13T18:36:53.356Z,11.73
2018-09-13T18:39:23.092Z,12.27
2018-09-13T18:41:52.783Z,12.33
2018-09-13T18:44:21.290Z,13.40
2018-09-13T18:46:50.368Z,11.10
2018-09-13T18:49:18.737Z,13.47
2018-09-13T18:51:47.152Z,14.67
2018-09-13T18:54:15.728Z,20.37
2018-09-13T18:56:44.079Z,21.20
2018-09-13T18:59:12.436Z,22.97
2018-09-13T19:01:41.761Z,16.50
2018-09-13T19:04:10.168Z,16.43
2018-09-13T19:06:38.602Z,16.60
2018-09-13T19:09:08.887Z,16.27
2018-09-13T19:11:38.749Z,16.53
2018-09-13T19:14:07.866Z,15.00
2018-09-13T19:16:36.540Z,15.23
2018-09-13T19:19:05.400Z,15.00
2018-09-13T19:21:33.822Z,16.60
2018-09-13T19:24:02.496Z,11.97
2018-09-13T19:26:31.689Z,16.33
2018-09-13T19:29:00.101Z,11.17
2018-09-13T19:31:28.514Z,13.37
2018-09-13T19:33:56.976Z,10.97
2018-09-13T19:36:25.769Z,10.47
2018-09-13T19:38:54.182Z,13.00
2018-09-13T19:41:22.615Z,10.23
2018-09-13T19:43:51.084Z,9.60
2018-09-13T19:46:19.801Z,12.03
2018-09-13T19:48:48.187Z,8.67
2018-09-13T19:51:16.677Z,10.00
2018-09-13T19:53:45.685Z,10.97
2018-09-13T19:56:14.037Z,9.50
2018-09-13T19:58:42.819Z,14.30
2018-09-13T20:01:11.261Z,9.03
2018-09-13T20:03:39.772Z,9.93
2018-09-13T20:06:08.292Z,13.43
2018-09-13T20:08:36.751Z,9.83
2018-09-13T20:11:05.277Z,11.57
2018-09-13T20:13:34.030Z,8.97
2018-09-13T20:16:02.911Z,9.53
2018-09-13T20:18:31.632Z,9.30
2018-09-13T20:21:00.068Z,8.20
2018-09-13T20:23:28.609Z,8.17
2018-09-13T20:25:57.073Z,9.70
2018-09-13T20:28:25.693Z,6.93
2018-09-13T20:30:54.047Z,11.17
2018-09-13T20:33:22.383Z,9.63
2018-09-13T20:35:50.711Z,8.83
2018-09-13T20:38:19.131Z,8.93
2018-09-13T20:40:47.441Z,9.47
2018-09-13T20:43:15.779Z,8.53
2018-09-13T20:45:44.164Z,8.30
2018-09-13T20:48:12.846Z,7.47
2018-09-13T20:50:41.207Z,9.67
2018-09-13T20:53:09.797Z,6.83
2018-09-13T20:55:38.154Z,6.20
2018-09-13T20:58:07.011Z,6.47
2018-09-13T21:00:35.945Z,4.97
2018-09-13T21:03:04.337Z,5.03
2018-09-13T21:05:33.831Z,5.90
2018-09-13T21:08:02.198Z,5.83
2018-09-13T21:10:30.572Z,6.57
2018-09-13T21:12:59.003Z,6.10
2018-09-13T21:15:27.398Z,5.37
2018-09-13T21:17:55.954Z,4.80
2018-09-13T21:20:24.291Z,6.63
2018-09-13T21:22:52.614Z,4.10
2018-09-13T21:25:21.326Z,4.57
2018-09-13T21:27:49.651Z,37.67
2018-09-13T21:30:17.986Z,4.57
2018-09-13T21:32:46.414Z,5.07
2018-09-13T21:35:14.734Z,5.53
2018-09-13T21:37:43.140Z,5.03
2018-09-13T21:40:11.528Z,4.20
2018-09-13T21:42:40.245Z,6.53
2018-09-13T21:45:08.584Z,3.13
2018-09-13T21:47:37.314Z,4.50
2018-09-13T21:50:06.036Z,3.47
2018-09-13T21:52:34.430Z,3.80
2018-09-13T21:55:03.824Z,3.33
2018-09-13T21:57:32.204Z,3.40
2018-09-13T22:00:00.544Z,5.73
2018-09-13T22:02:28.998Z,4.40
2018-09-13T22:04:57.323Z,5.43
2018-09-13T22:07:25.739Z,4.17
2018-09-13T22:09:54.082Z,3.83
2018-09-13T22:12:22.886Z,3.93
2018-09-13T22:14:51.238Z,3.30
2018-09-13T22:17:21.814Z,3.27
2018-09-13T22:19:50.362Z,2.50
2018-09-13T22:22:18.760Z,2.23
2018-09-13T22:24:47.086Z,2.43
2018-09-13T22:27:15.422Z,2.83
2018-09-13T22:29:43.909Z,2.70
2018-09-13T22:32:12.255Z,4.53
2018-09-13T22:34:40.623Z,3.13
2018-09-13T22:37:09.260Z,2.17
2018-09-13T22:39:37.669Z,3.30
2018-09-13T22:42:06.887Z,3.40
2018-09-13T22:44:39.267Z,3.13
2018-09-13T22:47:08.005Z,2.30
2018-09-13T22:49:43.210Z,3.70
2018-09-13T22:52:11.591Z,2.30
2018-09-13T22:54:40.734Z,2.07
2018-09-13T22:57:09.123Z,4.20
2018-09-13T22:59:44.320Z,3.00
2018-09-13T23:02:12.692Z,3.43
2018-09-13T23:04:44.403Z,3.40
2018-09-13T23:07:12.811Z,2.03
2018-09-13T23:09:41.281Z,3.37
2018-09-13T23:12:09.612Z,1.97
2018-09-13T23:14:38.864Z,3.23
2018-09-13T23:17:07.243Z,3.07
2018-09-13T23:19:35.632Z,2.23
2018-09-13T23:22:04.109Z,3.07
2018-09-13T23:24:32.451Z,2.77
2018-09-13T23:27:00.904Z,2.20
2018-09-13T23:29:29.256Z,3.47
2018-09-13T23:31:58.104Z,3.23
2018-09-13T23:34:26.474Z,2.80
2018-09-13T23:36:55.090Z,2.40
2018-09-13T23:39:23.491Z,2.07
2018-09-13T23:41:51.768Z,1.73
2018-09-13T23:44:20.118Z,2.63
2018-09-13T23:46:48.460Z,1.60
2018-09-13T23:49:17.169Z,1.87
2018-09-13T23:51:45.491Z,2.13
2018-09-13T23:54:13.898Z,3.07
2018-09-13T23:56:42.256Z,4.20
2018-09-13T23:59:10.609Z,1.93
